Time;durP1;ratioP1;P1;durP2;ratioP2;P2;SDS_P1;SDS_P2;PMS_P1;PMS_P2;Temp;Humidity;BMP_temperature;BMP_pressure;BME280_temperature;BME280_humidity;BME280_pressure;Samples;Min_cycle;Max_cycle;Signal;HPM_P1;HPM_P2
2021/08/31 05:01:36;;;;;;;6.60;6.10;;;;;;;20.10;59.83;94849.94;5462475;23;20058;-72
2021/08/31 05:04:01;;;;;;;6.70;6.15;;;;;;;20.81;57.31;94846.88;4936906;28;20026;-72
2021/08/31 05:06:27;;;;;;;5.57;5.28;;;;;;;21.65;54.94;94844.31;4939062;28;20547;-72
2021/08/31 05:08:53;;;;;;;6.13;5.63;;;;;;;22.07;53.95;94848.13;4953612;28;20102;-72
2021/08/31 05:11:19;;;;;;;6.03;5.20;;;;;;;22.99;52.15;94845.47;4938639;28;20034;-72
2021/08/31 05:13:44;;;;;;;5.80;5.30;;;;;;;22.84;52.28;94840.03;4938399;28;20070;-72
2021/08/31 05:16:12;;;;;;;6.20;5.70;;;;;;;23.86;49.50;94843.28;4971299;28;20575;-72
2021/08/31 05:18:37;;;;;;;6.32;5.68;;;;;;;23.50;50.97;94839.59;4954966;28;20129;-71
2021/08/31 05:21:04;;;;;;;5.55;5.05;;;;;;;23.86;50.09;94837.97;4952976;28;20492;-71
2021/08/31 05:23:31;;;;;;;7.35;6.03;;;;;;;23.68;49.78;94841.06;4938997;28;20091;-72
2021/08/31 05:25:56;;;;;;;7.35;6.70;;;;;;;24.60;48.62;94840.47;4937037;28;20543;-71
2021/08/31 05:28:22;;;;;;;6.22;5.82;;;;;;;24.74;47.54;94832.81;4938551;28;20027;-72
2021/08/31 05:30:47;;;;;;;7.13;6.43;;;;;;;24.81;45.80;94834.19;4921142;28;20041;-72
2021/08/31 05:33:13;;;;;;;5.70;5.20;;;;;;;25.58;44.12;94831.38;4953937;28;20082;-72
2021/08/31 05:35:38;;;;;;;5.85;5.35;;;;;;;25.67;43.90;94835.06;4938179;28;20110;-72
2021/08/31 05:38:04;;;;;;;6.13;5.63;;;;;;;26.67;43.10;94835.88;4953078;28;20089;-72
2021/08/31 05:40:29;;;;;;;6.15;5.60;;;;;;;26.04;44.33;94832.06;4970812;28;20035;-72
2021/08/31 05:42:55;;;;;;;6.28;5.50;;;;;;;26.98;42.70;94828.53;4952985;28;20030;-72
2021/08/31 05:45:20;;;;;;;5.72;5.28;;;;;;;26.83;40.69;94835.81;4954089;28;20114;-71
2021/08/31 05:47:46;;;;;;;7.05;6.20;;;;;;;27.04;41.08;94837.25;4952181;28;20042;-71
2021/08/31 05:50:11;;;;;;;6.30;5.45;;;;;;;27.25;40.53;94836.06;4953672;28;20042;-71
2021/08/31 05:52:37;;;;;;;5.95;5.40;;;;;;;27.78;39.48;94834.31;4953296;28;20027;-71
2021/08/31 05:55:02;;;;;;;7.78;7.10;;;;;;;28.21;38.40;94827.25;4937575;28;20524;-72
2021/08/31 05:57:28;;;;;;;7.13;6.55;;;;;;;27.89;39.48;94833.16;4954373;28;20039;-71
2021/08/31 05:59:53;;;;;;;8.50;6.50;;;;;;;26.94;41.49;94829.38;4969668;28;20109;-72
2021/08/31 06:02:19;;;;;;;6.40;5.28;;;;;;;23.05;50.14;94834.69;4953861;28;20039;-72
2021/08/31 06:04:44;;;;;;;6.65;6.05;;;;;;;22.66;52.80;94840.41;4936425;28;20034;-72
2021/08/31 06:07:10;;;;;;;6.25;5.85;;;;;;;22.32;53.71;94837.88;4936666;28;20023;-72
2021/08/31 06:09:37;;;;;;;6.55;6.15;;;;;;;22.73;52.24;94833.09;4936385;28;20085;-71
2021/08/31 06:12:07;;;;;;;7.65;6.88;;;;;;;22.83;52.45;94833.97;4938021;28;20046;-71
2021/08/31 06:14:32;;;;;;;6.57;5.90;;;;;;;23.57;51.72;94832.25;4937009;28;20130;-71
2021/08/31 06:16:58;;;;;;;6.03;5.63;;;;;;;28.24;40.59;94837.31;4936170;28;20114;-71
2021/08/31 06:19:23;;;;;;;6.30;5.60;;;;;;;28.16;39.43;94833.41;4937619;28;20031;-71
2021/08/31 06:21:49;;;;;;;6.10;5.35;;;;;;;24.69;46.22;94838.94;4912511;28;20047;-69
2021/08/31 06:24:14;;;;;;;6.78;6.10;;;;;;;22.32;53.22;94837.88;4959701;28;20082;-72
2021/08/31 06:26:40;;;;;;;7.00;6.05;;;;;;;22.44;53.24;94835.88;4937992;28;20497;-72
2021/08/31 06:29:05;;;;;;;6.45;5.85;;;;;;;22.47;55.61;94847.81;4932545;29;20732;-72
2021/08/31 06:31:31;;;;;;;5.60;5.20;;;;;;;22.98;51.95;94841.25;4931204;29;20485;-72
2021/08/31 06:33:56;;;;;;;6.25;5.65;;;;;;;23.04;52.73;94838.41;4933199;29;20086;-72
2021/08/31 06:36:22;;;;;;;5.80;5.40;;;;;;;23.42;52.56;94844.56;4933721;29;20500;-71
2021/08/31 06:38:47;;;;;;;5.60;5.10;;;;;;;24.38;50.60;94835.38;4932895;29;20051;-72
2021/08/31 06:41:13;;;;;;;5.22;4.93;;;;;;;28.27;41.37;94836.75;4933578;29;20031;-72
2021/08/31 06:43:38;;;;;;;6.28;5.78;;;;;;;30.47;36.44;94830.19;4931898;29;20034;-71
2021/08/31 06:46:03;;;;;;;4.95;4.47;;;;;;;31.22;35.50;94833.16;4951096;29;20027;-72
2021/08/31 06:48:29;;;;;;;5.10;4.70;;;;;;;31.71;34.09;94843.00;4933406;28;20023;-71
2021/08/31 06:50:54;;;;;;;5.68;5.28;;;;;;;32.15;33.74;94844.03;4932358;29;20477;-71
2021/08/31 06:53:20;;;;;;;5.70;5.25;;;;;;;32.82;32.58;94839.22;4932402;29;20035;-72
2021/08/31 06:55:45;;;;;;;5.82;5.32;;;;;;;32.52;32.30;94848.94;4932419;29;20043;-72
2021/08/31 06:58:11;;;;;;;6.45;5.90;;;;;;;26.89;41.29;94845.34;4951011;29;20035;-72
2021/08/31 07:00:36;;;;;;;6.63;5.43;;;;;;;25.42;45.25;94847.53;4931542;29;20468;-72
2021/08/31 07:03:02;;;;;;;5.78;4.57;;;;;;;25.17;46.11;94843.78;4916615;29;20023;-72
2021/08/31 07:05:27;;;;;;;8.77;5.47;;;;;;;24.86;47.15;94839.50;4930700;29;20038;-71
2021/08/31 07:07:52;;;;;;;5.75;5.30;;;;;;;24.73;48.23;94839.19;4949196;29;20066;-71
2021/08/31 07:10:18;;;;;;;6.03;5.47;;;;;;;24.98;45.36;94845.34;4948807;29;20028;-71
2021/08/31 07:12:43;;;;;;;5.45;5.05;;;;;;;25.06;44.27;94838.75;4931196;29;20042;-71
2021/08/31 07:15:10;;;;;;;6.82;5.30;;;;;;;24.97;45.48;94838.47;4932092;29;20023;-72
2021/08/31 07:17:35;;;;;;;5.82;4.95;;;;;;;25.24;45.18;94843.53;4930067;29;20039;-71
2021/08/31 07:20:01;;;;;;;6.90;5.93;;;;;;;24.87;47.54;94841.09;4932237;29;20024;-71
2021/08/31 07:22:26;;;;;;;5.50;5.13;;;;;;;24.57;47.77;94841.78;4930879;29;20036;-72
2021/08/31 07:24:52;;;;;;;6.13;5.53;;;;;;;23.86;49.69;94848.56;4931531;29;20493;-71
2021/08/31 07:27:17;;;;;;;5.45;4.95;;;;;;;24.62;47.13;94843.66;4931178;29;20027;-72
2021/08/31 07:29:42;;;;;;;6.38;4.97;;;;;;;24.24;48.54;94854.66;4915452;29;20042;-72
2021/08/31 07:32:08;;;;;;;5.35;4.70;;;;;;;24.06;47.37;94848.69;4931519;29;20432;-72
2021/08/31 07:34:34;;;;;;;4.90;4.60;;;;;;;24.10;48.66;94848.97;4930312;29;20035;-72
2021/08/31 07:36:59;;;;;;;5.95;5.00;;;;;;;24.23;48.69;94847.75;4931999;29;20413;-71
2021/08/31 07:39:25;;;;;;;5.82;5.20;;;;;;;24.13;48.51;94853.78;4930094;29;20458;-72
2021/08/31 07:41:50;;;;;;;5.55;5.07;;;;;;;23.72;49.40;94847.44;4931640;29;20031;-73
2021/08/31 07:44:16;;;;;;;6.30;5.70;;;;;;;23.78;49.53;94849.06;4930537;29;20031;-74
2021/08/31 07:46:46;;;;;;;4.93;4.53;;;;;;;24.24;48.96;94850.13;4915458;29;20417;-72
2021/08/31 07:49:12;;;;;;;8.52;5.05;;;;;;;24.31;49.44;94850.69;4931770;29;20035;-72
2021/08/31 07:51:37;;;;;;;5.30;4.90;;;;;;;23.90;49.24;94852.31;4930669;29;20031;-71
2021/08/31 07:54:03;;;;;;;5.72;5.32;;;;;;;24.06;46.84;94850.53;4914957;29;20087;-72
2021/08/31 07:56:29;;;;;;;5.40;4.90;;;;;;;23.77;47.51;94850.09;4930195;29;20098;-71
2021/08/31 07:58:54;;;;;;;4.97;4.57;;;;;;;24.16;47.68;94842.69;4948830;29;20109;-75
2021/08/31 08:01:20;;;;;;;4.88;4.47;;;;;;;24.33;48.58;94853.91;4903126;29;20047;-73
2021/08/31 08:03:45;;;;;;;5.53;5.13;;;;;;;24.05;48.83;94851.59;4908941;29;20035;-72
2021/08/31 08:06:11;;;;;;;8.55;5.20;;;;;;;23.59;48.89;94848.69;4908372;29;20509;-72
2021/08/31 08:08:37;;;;;;;10.63;5.35;;;;;;;24.63;47.65;94842.59;4908969;29;20141;-71
2021/08/31 08:11:03;;;;;;;6.63;4.95;;;;;;;24.10;50.25;94847.13;4909812;29;20035;-73
2021/08/31 08:13:28;;;;;;;4.70;4.35;;;;;;;25.23;47.53;94838.50;4908099;29;20617;-72
2021/08/31 08:15:54;;;;;;;6.25;5.75;;;;;;;23.66;50.65;94835.22;4893580;29;20486;-72
2021/08/31 08:18:19;;;;;;;5.60;4.85;;;;;;;24.34;45.96;94834.28;4892611;29;20087;-72
2021/08/31 08:20:45;;;;;;;5.63;5.13;;;;;;;24.15;46.61;94838.44;4910456;29;20036;-71
2021/08/31 08:23:12;;;;;;;5.80;5.22;;;;;;;23.46;47.90;94840.38;4908307;29;20064;-72
2021/08/31 08:25:38;;;;;;;5.00;4.45;;;;;;;23.10;49.85;94834.75;4908588;29;20028;-72
2021/08/31 08:28:03;;;;;;;5.35;4.85;;;;;;;24.95;47.88;94829.97;4908591;29;20555;-71
2021/08/31 08:30:29;;;;;;;5.35;4.85;;;;;;;24.14;46.86;94828.91;4910141;29;20379;-74
2021/08/31 08:32:54;;;;;;;5.38;4.90;;;;;;;24.16;48.32;94834.75;4913863;29;20035;-71
2021/08/31 08:35:21;;;;;;;5.68;5.18;;;;;;;23.07;49.35;94823.88;4911449;29;20068;-73
2021/08/31 08:37:47;;;;;;;5.30;4.90;;;;;;;24.43;50.05;94822.16;4912545;29;20091;-71
2021/08/31 08:40:12;;;;;;;5.95;5.22;;;;;;;24.93;47.87;94821.50;4911560;29;20443;-75
2021/08/31 08:42:38;;;;;;;5.88;4.70;;;;;;;23.85;48.79;94815.25;4912790;29;20032;-73
2021/08/31 08:45:06;;;;;;;5.35;5.03;;;;;;;23.12;50.71;94820.50;4895660;29;20063;-75
2021/08/31 08:47:32;;;;;;;5.07;4.68;;;;;;;23.92;49.65;94815.78;4912279;29;20065;-74
2021/08/31 08:49:57;;;;;;;4.75;4.40;;;;;;;25.16;45.70;94815.69;4912166;29;20032;-72
2021/08/31 08:52:22;;;;;;;4.53;3.70;;;;;;;24.88;43.34;94807.47;4911806;29;20031;-71
2021/08/31 08:54:48;;;;;;;4.72;4.32;;;;;;;25.13;43.83;94810.13;4912565;29;20099;-72
2021/08/31 08:57:17;;;;;;;4.30;4.00;;;;;;;25.04;44.19;94801.13;4895790;29;20032;-71
2021/08/31 08:59:42;;;;;;;4.35;3.88;;;;;;;25.64;45.47;94798.47;4896676;29;20123;-71
2021/08/31 09:02:08;;;;;;;5.18;4.68;;;;;;;25.45;42.97;94792.09;4911135;29;20048;-71
2021/08/31 09:04:44;;;;;;;4.57;4.18;;;;;;;24.51;47.73;94792.50;4913308;29;20072;-73
2021/08/31 09:07:17;;;;;;;4.35;4.05;;;;;;;25.58;43.61;94791.56;4913577;29;20096;-71
2021/08/31 09:09:43;;;;;;;4.35;3.95;;;;;;;25.78;43.40;94789.94;4895446;29;20482;-71
2021/08/31 09:12:30;;;;;;;4.47;4.07;;;;;;;25.84;41.99;94786.22;4912366;29;20076;-71
2021/08/31 09:14:56;;;;;;;4.95;4.50;;;;;;;25.36;43.80;94776.97;4911036;29;20032;-70
2021/08/31 09:17:21;;;;;;;7.13;4.25;;;;;;;25.54;43.33;94779.09;4896486;29;20031;-71
2021/08/31 09:19:47;;;;;;;4.70;4.18;;;;;;;26.09;42.62;94775.50;4912573;29;20034;-71
2021/08/31 09:22:14;;;;;;;5.15;4.63;;;;;;;26.16;44.65;94773.38;4880032;29;20032;-72
2021/08/31 09:24:40;;;;;;;4.53;3.97;;;;;;;26.77;43.55;94779.19;4911638;29;20505;-71
2021/08/31 09:27:05;;;;;;;4.07;3.78;;;;;;;26.64;42.83;94767.31;4910446;29;20063;-71
2021/08/31 09:29:37;;;;;;;4.18;3.83;;;;;;;26.33;42.53;94762.44;4912066;29;20580;-75
2021/08/31 09:32:03;;;;;;;5.05;3.42;;;;;;;26.49;41.26;94769.25;4910584;29;20043;-72
2021/08/31 09:34:39;;;;;;;5.15;3.90;;;;;;;25.52;41.08;94763.47;4896244;29;20032;-71
2021/08/31 09:37:32;;;;;;;4.05;3.65;;;;;;;26.53;41.37;94765.75;4912225;29;20035;-72
2021/08/31 09:40:06;;;;;;;4.20;3.88;;;;;;;26.24;40.51;94759.53;4910436;29;20044;-71
2021/08/31 09:42:32;;;;;;;5.88;3.65;;;;;;;25.76;39.48;94755.69;4911705;29;20119;-72
2021/08/31 09:45:05;;;;;;;6.00;3.70;;;;;;;26.55;40.80;94752.97;4910219;29;20024;-71
2021/08/31 09:47:37;;;;;;;3.78;3.35;;;;;;;26.60;40.74;94749.50;4896266;29;20039;-73
2021/08/31 09:50:04;;;;;;;3.60;3.30;;;;;;;26.10;38.24;94745.25;4894814;29;20409;-71
2021/08/31 09:52:29;;;;;;;3.53;3.25;;;;;;;26.76;39.30;94744.88;4911178;29;20032;-71
2021/08/31 09:54:56;;;;;;;4.00;3.70;;;;;;;26.34;39.67;94756.81;4912587;29;20052;-71
2021/08/31 09:57:48;;;;;;;3.40;3.20;;;;;;;26.88;38.39;94748.00;4894747;29;20075;-71
2021/08/31 10:00:16;;;;;;;3.72;3.42;;;;;;;27.12;38.71;94743.59;4908483;29;20044;-71
2021/08/31 10:02:43;;;;;;;3.22;3.03;;;;;;;26.30;38.09;94742.50;4910266;29;20427;-72
2021/08/31 10:05:09;;;;;;;4.57;3.40;;;;;;;26.53;39.29;94735.72;4910710;29;20043;-71
2021/08/31 10:07:34;;;;;;;4.28;3.20;;;;;;;26.71;37.91;94740.41;4910752;29;20040;-71
2021/08/31 10:10:00;;;;;;;4.43;2.97;;;;;;;26.60;39.84;94726.38;4910370;29;20126;-71
2021/08/31 10:12:26;;;;;;;3.40;3.10;;;;;;;26.43;39.78;94727.81;4895519;29;20038;-70
2021/08/31 10:14:56;;;;;;;3.20;3.00;;;;;;;26.03;38.90;94734.09;4909716;29;20080;-71
2021/08/31 10:17:26;;;;;;;3.45;2.90;;;;;;;26.32;39.86;94732.41;4911223;29;20514;-70
2021/08/31 10:19:54;;;;;;;2.92;2.63;;;;;;;26.45;39.25;94723.03;4910151;29;20026;-70
2021/08/31 10:22:21;;;;;;;3.35;2.92;;;;;;;26.70;40.68;94718.34;4895032;29;20083;-71
2021/08/31 10:24:46;;;;;;;2.88;2.67;;;;;;;26.80;40.66;94717.47;4894625;29;20028;-71
2021/08/31 10:27:37;;;;;;;2.60;2.40;;;;;;;26.32;38.43;94716.47;4894208;29;20024;-73
2021/08/31 10:30:15;;;;;;;3.92;2.50;;;;;;;25.87;37.03;94717.44;4912320;29;20463;-71
2021/08/31 10:32:44;;;;;;;2.60;2.38;;;;;;;26.24;38.29;94706.41;4911159;29;20379;-71
2021/08/31 10:35:22;;;;;;;3.08;2.78;;;;;;;26.39;38.18;94710.84;4910291;29;20032;-71
2021/08/31 10:37:48;;;;;;;2.42;2.25;;;;;;;26.06;40.30;94705.16;4895930;29;20024;-71
2021/08/31 10:40:33;;;;;;;2.90;2.70;;;;;;;26.41;38.26;94703.38;4909547;29;20035;-71
2021/08/31 10:43:02;;;;;;;4.03;2.67;;;;;;;25.89;38.68;94706.53;4911077;29;20028;-72
2021/08/31 10:45:30;;;;;;;2.63;2.45;;;;;;;26.45;39.20;94702.56;4892971;29;20032;-70
2021/08/31 10:47:56;;;;;;;3.25;3.05;;;;;;;26.43;40.34;94706.56;4895330;29;20035;-70
2021/08/31 10:50:29;;;;;;;3.67;2.30;;;;;;;26.63;39.09;94696.59;4909358;29;20425;-70
2021/08/31 10:53:04;;;;;;;3.72;2.53;;;;;;;26.17;39.18;94700.59;4893923;29;20060;-70
2021/08/31 10:55:31;;;;;;;3.35;3.05;;;;;;;25.98;39.23;94697.75;4894753;29;20164;-71
2021/08/31 10:57:58;;;;;;;3.15;2.65;;;;;;;26.02;39.96;94696.13;4893321;29;20027;-70
2021/08/31 11:00:27;;;;;;;2.90;2.65;;;;;;;26.34;40.99;94697.59;4912178;29;20020;-71
2021/08/31 11:02:58;;;;;;;3.63;2.50;;;;;;;26.78;40.84;94694.91;4948494;28;20027;-70
2021/08/31 11:05:26;;;;;;;3.10;2.30;;;;;;;26.37;40.09;94697.03;4932919;29;20397;-72
2021/08/31 11:07:59;;;;;;;2.47;2.30;;;;;;;26.56;39.18;94703.28;4948722;29;20037;-71
2021/08/31 11:10:28;;;;;;;3.00;2.80;;;;;;;26.25;40.16;94692.06;4948678;29;20481;-72
2021/08/31 11:12:54;;;;;;;2.20;2.10;;;;;;;26.23;38.67;94698.72;4942373;28;20415;-71
2021/08/31 11:15:24;;;;;;;2.63;2.42;;;;;;;26.14;39.82;94693.13;4947339;28;20109;-70
2021/08/31 11:17:51;;;;;;;3.17;2.70;;;;;;;26.58;41.79;94688.66;4932707;28;20027;-70
2021/08/31 11:20:26;;;;;;;2.63;2.42;;;;;;;26.70;39.30;94690.97;4946155;28;20023;-71
2021/08/31 11:23:07;;;;;;;3.88;2.40;;;;;;;26.86;41.76;94684.50;4951711;28;20109;-71
2021/08/31 11:25:42;;;;;;;2.50;2.38;;;;;;;26.99;40.60;94686.50;4967828;28;20105;-76
2021/08/31 11:28:20;;;;;;;2.10;2.00;;;;;;;26.92;37.14;94690.56;4934153;28;20073;-71
2021/08/31 11:30:49;;;;;;;2.70;2.50;;;;;;;26.70;38.54;94685.66;4951062;28;20492;-71
2021/08/31 11:33:18;;;;;;;2.85;2.20;;;;;;;26.92;40.35;94671.94;4949945;28;20483;-73
2021/08/31 11:35:44;;;;;;;2.60;2.38;;;;;;;26.16;38.05;94675.13;4950776;28;20113;-71
2021/08/31 11:38:10;;;;;;;2.65;2.45;;;;;;;25.63;37.98;94674.78;4950386;28;20034;-72
2021/08/31 11:40:35;;;;;;;3.03;2.30;;;;;;;26.46;39.88;94674.13;4949783;28;20464;-71
2021/08/31 11:43:01;;;;;;;2.67;2.47;;;;;;;26.73;38.75;94675.25;4968313;28;20035;-71
2021/08/31 11:45:32;;;;;;;2.55;2.30;;;;;;;26.68;39.45;94669.97;4967008;28;20027;-71
2021/08/31 11:47:58;;;;;;;2.85;2.60;;;;;;;26.61;37.25;94666.84;4968462;28;20121;-71
2021/08/31 11:50:23;;;;;;;2.92;2.55;;;;;;;26.96;39.75;94665.00;4966716;28;20547;-71
2021/08/31 11:52:48;;;;;;;2.90;2.70;;;;;;;27.04;40.88;94662.50;4934692;28;20026;-73
2021/08/31 11:55:21;;;;;;;3.10;2.78;;;;;;;26.86;39.40;94660.56;4966851;28;20432;-72
2021/08/31 11:57:47;;;;;;;2.92;2.72;;;;;;;26.53;39.10;94650.69;4950761;28;20448;-71
2021/08/31 12:00:14;;;;;;;3.42;3.05;;;;;;;26.98;40.35;94654.88;4968849;28;20030;-75
2021/08/31 12:02:41;;;;;;;5.10;2.50;;;;;;;26.64;37.87;94657.53;4930956;28;20046;-73
2021/08/31 12:05:07;;;;;;;2.90;2.55;;;;;;;26.73;38.52;94654.00;4935484;28;20034;-72
2021/08/31 12:07:42;;;;;;;3.47;2.80;;;;;;;26.79;38.23;94645.97;4952602;28;20496;-71
2021/08/31 12:10:25;;;;;;;5.53;2.70;;;;;;;26.97;39.96;94642.66;4969496;28;20038;-71
2021/08/31 12:12:51;;;;;;;5.50;3.08;;;;;;;26.92;39.67;94640.03;4968741;28;20034;-71
2021/08/31 12:15:16;;;;;;;3.05;2.75;;;;;;;27.17;39.75;94637.91;4953118;28;20031;-74
2021/08/31 12:17:44;;;;;;;2.90;2.70;;;;;;;27.06;37.81;94627.69;4952787;28;20066;-74
2021/08/31 12:20:15;;;;;;;3.00;2.80;;;;;;;26.72;38.78;94639.09;4952597;28;20483;-71
2021/08/31 12:22:42;;;;;;;3.85;2.80;;;;;;;27.15;38.25;94631.31;4969578;28;20114;-74
2021/08/31 12:25:08;;;;;;;3.28;2.70;;;;;;;27.34;39.29;94626.84;4951944;28;20071;-74
2021/08/31 12:27:41;;;;;;;2.50;2.30;;;;;;;27.34;38.34;94636.69;4953742;28;20022;-71
2021/08/31 12:30:08;;;;;;;3.10;2.90;;;;;;;27.07;39.61;94626.56;4968483;28;20023;-72
2021/08/31 12:32:34;;;;;;;2.88;2.55;;;;;;;27.20;37.15;94625.91;4968610;28;20030;-71
2021/08/31 12:35:39;;;;;;;2.53;2.33;;;;;;;27.07;38.63;94621.25;4968875;28;20146;-72
2021/08/31 12:38:14;;;;;;;2.75;2.55;;;;;;;27.17;39.06;94621.16;4969503;28;20031;-73
2021/08/31 12:41:08;;;;;;;5.43;2.20;;;;;;;27.14;36.50;94622.53;4968912;28;20027;-73
2021/08/31 12:43:55;;;;;;;2.58;2.42;;;;;;;26.97;39.06;94621.38;4969144;28;20598;-74
2021/08/31 12:46:28;;;;;;;3.95;2.65;;;;;;;27.05;38.38;94612.78;4967356;28;20106;-72
2021/08/31 12:49:06;;;;;;;2.65;2.45;;;;;;;26.77;37.49;94610.91;4953379;28;20034;-72
2021/08/31 12:51:48;;;;;;;4.40;3.07;;;;;;;27.20;39.44;94600.09;4952593;28;20030;-73
2021/08/31 12:54:34;;;;;;;2.63;2.33;;;;;;;26.96;37.57;94603.84;4952834;28;20038;-72
2021/08/31 12:57:04;;;;;;;4.35;2.80;;;;;;;26.63;38.61;94603.56;4968577;28;20042;-72
2021/08/31 12:59:37;;;;;;;2.85;2.65;;;;;;;26.53;38.13;94590.38;4967454;28;20035;-72
2021/08/31 13:02:05;;;;;;;4.00;2.80;;;;;;;26.92;38.06;94590.31;4953140;28;20051;-73
2021/08/31 13:04:31;;;;;;;2.80;2.60;;;;;;;26.89;38.91;94595.38;4951833;28;20022;-74
2021/08/31 13:07:03;;;;;;;4.43;2.63;;;;;;;27.06;38.72;94593.09;4952566;28;20035;-75
2021/08/31 13:09:28;;;;;;;3.30;2.70;;;;;;;26.94;38.63;94588.16;4968989;28;20081;-72
2021/08/31 13:11:54;;;;;;;3.70;2.72;;;;;;;26.77;35.65;94585.13;4968399;28;20027;-72
2021/08/31 13:14:21;;;;;;;5.25;2.42;;;;;;;26.88;37.60;94577.84;4920592;28;20120;-72
2021/08/31 13:16:48;;;;;;;4.18;2.55;;;;;;;27.02;37.06;94576.91;4942579;28;20034;-71
2021/08/31 13:19:14;;;;;;;3.22;2.92;;;;;;;27.00;38.41;94568.41;4949031;28;20116;-71
2021/08/31 13:21:40;;;;;;;3.78;3.05;;;;;;;26.90;37.62;94578.38;4933687;28;20427;-72
2021/08/31 13:24:06;;;;;;;3.22;2.92;;;;;;;27.06;38.84;94575.28;4927274;28;20480;-73
2021/08/31 13:26:32;;;;;;;3.90;2.95;;;;;;;26.61;37.00;94571.19;4935420;28;20081;-72
2021/08/31 13:28:58;;;;;;;6.75;3.10;;;;;;;26.74;37.85;94575.03;4919941;28;20428;-72
2021/08/31 13:31:24;;;;;;;4.57;2.95;;;;;;;26.72;38.12;94580.63;4951912;28;20622;-73
2021/08/31 13:33:49;;;;;;;5.25;2.78;;;;;;;26.52;38.84;94572.81;4967835;28;20027;-71
2021/08/31 13:36:15;;;;;;;4.70;2.83;;;;;;;26.82;37.12;94571.78;4952194;28;20027;-72
2021/08/31 13:38:41;;;;;;;3.28;2.97;;;;;;;26.92;38.24;94571.69;4934950;28;20117;-72
2021/08/31 13:41:06;;;;;;;3.97;2.83;;;;;;;26.98;37.77;94569.75;4951591;28;20105;-71
2021/08/31 13:43:32;;;;;;;2.88;2.63;;;;;;;27.07;37.29;94568.06;4919051;28;20037;-74
2021/08/31 13:45:57;;;;;;;3.05;2.75;;;;;;;27.18;37.33;94556.25;4933055;28;20412;-73
2021/08/31 13:48:23;;;;;;;2.63;2.42;;;;;;;26.99;37.59;94566.84;4951295;28;20015;-74
2021/08/31 13:50:48;;;;;;;5.50;2.78;;;;;;;26.97;37.78;94570.84;4950542;28;20386;-76
2021/08/31 13:53:14;;;;;;;2.67;2.47;;;;;;;27.06;36.83;94569.97;4951175;28;20117;-72
2021/08/31 13:55:39;;;;;;;3.30;2.75;;;;;;;26.82;36.74;94571.78;4931834;28;20019;-70
2021/08/31 13:58:05;;;;;;;3.25;2.70;;;;;;;26.62;37.63;94567.44;4934297;28;20035;-74
2021/08/31 14:00:30;;;;;;;3.38;2.03;;;;;;;26.58;37.40;94570.94;4949832;28;20054;-72
2021/08/31 14:02:56;;;;;;;2.92;2.55;;;;;;;26.55;36.54;94571.50;4951268;28;20030;-71
2021/08/31 14:05:21;;;;;;;2.78;2.53;;;;;;;26.65;37.94;94566.88;4950743;28;20023;-72
2021/08/31 14:07:47;;;;;;;3.55;2.90;;;;;;;26.75;38.60;94565.22;4968261;28;20602;-70
2021/08/31 14:10:12;;;;;;;2.80;2.60;;;;;;;26.65;37.84;94566.88;4951061;28;20875;-71
2021/08/31 14:12:38;;;;;;;2.45;2.25;;;;;;;26.67;36.84;94564.72;4934492;28;20031;-71
2021/08/31 14:15:04;;;;;;;2.92;2.72;;;;;;;26.76;36.44;94566.78;4951300;28;20532;-71
2021/08/31 14:17:30;;;;;;;9.27;2.30;;;;;;;26.46;36.70;94567.84;4950320;28;20608;-71
2021/08/31 14:19:55;;;;;;;3.50;2.53;;;;;;;26.62;38.40;94564.75;4950805;28;20039;-71
2021/08/31 14:22:21;;;;;;;3.42;3.10;;;;;;;26.63;37.75;94569.03;4950471;28;20535;-71
2021/08/31 14:24:46;;;;;;;2.72;2.45;;;;;;;26.57;38.59;94559.50;4968253;28;20027;-71
2021/08/31 14:27:12;;;;;;;4.15;2.88;;;;;;;26.48;37.86;94565.72;4934227;28;20031;-72
2021/08/31 14:29:37;;;;;;;6.10;2.85;;;;;;;26.72;38.94;94555.91;4967203;28;20101;-73
2021/08/31 14:32:03;;;;;;;4.20;2.58;;;;;;;27.00;37.27;94555.09;4951185;28;20543;-71
2021/08/31 14:34:29;;;;;;;2.85;2.58;;;;;;;26.66;36.66;94552.50;4949704;28;20062;-70
2021/08/31 14:36:54;;;;;;;3.47;2.88;;;;;;;26.61;37.01;94555.22;4968659;28;20019;-71
2021/08/31 14:39:19;;;;;;;3.80;2.83;;;;;;;26.57;38.43;94559.50;4933794;28;20038;-70
2021/08/31 14:41:45;;;;;;;3.20;2.90;;;;;;;26.49;39.57;94557.44;4934666;28;20034;-71
2021/08/31 14:44:11;;;;;;;3.33;2.70;;;;;;;26.53;38.47;94561.13;4949900;28;20019;-71
2021/08/31 14:46:37;;;;;;;4.93;3.00;;;;;;;26.35;38.70;94553.88;4934191;28;20027;-71
2021/08/31 14:49:02;;;;;;;4.18;3.13;;;;;;;26.32;38.17;94556.28;4934556;28;20026;-71
2021/08/31 14:51:27;;;;;;;3.50;3.20;;;;;;;26.34;37.24;94549.59;4966582;28;20038;-71
2021/08/31 14:53:53;;;;;;;6.25;3.20;;;;;;;26.10;39.50;94549.50;4968048;28;20081;-71
2021/08/31 14:56:18;;;;;;;7.78;2.60;;;;;;;25.99;38.38;94560.47;4943313;28;20039;-71
2021/08/31 14:58:44;;;;;;;3.40;3.10;;;;;;;26.00;39.18;94559.41;4926390;28;20078;-70
2021/08/31 15:01:09;;;;;;;5.60;3.70;;;;;;;25.96;40.38;94559.16;4958482;28;20099;-71
2021/08/31 15:03:35;;;;;;;3.15;2.85;;;;;;;25.86;39.58;94558.44;4948512;28;20460;-70
2021/08/31 15:06:00;;;;;;;4.32;3.42;;;;;;;26.02;40.47;94559.91;4959104;28;20038;-71
2021/08/31 15:08:26;;;;;;;3.35;2.95;;;;;;;25.93;40.15;94557.06;4942207;28;20028;-71
2021/08/31 15:10:51;;;;;;;4.70;4.00;;;;;;;25.96;41.27;94558.38;4930072;28;20501;-74
2021/08/31 15:13:16;;;;;;;5.50;2.88;;;;;;;26.17;40.89;94563.28;4978528;28;20405;-72
2021/08/31 15:15:42;;;;;;;3.17;2.92;;;;;;;26.22;42.05;94559.81;4965354;28;20054;-72
2021/08/31 15:18:09;;;;;;;6.07;3.83;;;;;;;26.08;40.76;94561.47;4942669;28;20034;-71
2021/08/31 15:20:35;;;;;;;4.30;3.65;;;;;;;26.11;40.95;94563.56;4940160;28;20031;-71
2021/08/31 15:23:00;;;;;;;5.38;3.90;;;;;;;25.91;39.92;94561.84;4943854;28;21477;-71
2021/08/31 15:25:26;;;;;;;3.22;2.92;;;;;;;25.89;41.74;94561.34;4942388;28;20027;-71
2021/08/31 15:27:51;;;;;;;10.52;4.60;;;;;;;25.71;41.51;94553.22;4930214;28;20035;-71
2021/08/31 15:30:18;;;;;;;6.22;4.38;;;;;;;25.37;41.62;94555.75;4946668;28;20089;-71
2021/08/31 15:32:44;;;;;;;7.78;4.93;;;;;;;25.34;42.75;94554.44;4932504;28;20066;-70
2021/08/31 15:35:11;;;;;;;12.00;6.25;;;;;;;25.51;42.91;94565.53;4908818;28;20026;-71
2021/08/31 15:37:36;;;;;;;7.88;5.35;;;;;;;25.45;43.26;94563.16;4958838;28;20481;-72
2021/08/31 15:40:03;;;;;;;5.95;4.10;;;;;;;25.46;43.26;94560.19;4939922;28;20032;-73
2021/08/31 15:42:28;;;;;;;5.53;4.28;;;;;;;25.48;43.23;94568.69;4927636;28;20023;-71
2021/08/31 15:44:54;;;;;;;5.03;3.80;;;;;;;25.50;43.08;94558.63;4960016;28;20035;-71
2021/08/31 15:47:20;;;;;;;4.47;4.07;;;;;;;25.41;42.78;94556.78;4928846;28;20057;-73
2021/08/31 15:49:45;;;;;;;5.15;3.00;;;;;;;25.16;43.39;94561.16;4923189;28;20027;-72
2021/08/31 15:52:11;;;;;;;5.35;3.28;;;;;;;25.00;43.53;94567.56;4932024;28;20026;-73
2021/08/31 15:54:41;;;;;;;3.53;3.22;;;;;;;25.06;43.59;94568.34;4962538;28;20109;-73
2021/08/31 15:57:08;;;;;;;5.13;3.17;;;;;;;24.97;43.65;94560.16;4946923;28;20428;-71
2021/08/31 15:59:34;;;;;;;3.28;2.97;;;;;;;24.84;44.79;94562.56;4948988;28;20412;-73
2021/08/31 16:02:00;;;;;;;4.57;2.83;;;;;;;24.87;44.36;94562.81;4948160;28;20500;-72
2021/08/31 16:04:25;;;;;;;4.35;2.80;;;;;;;24.79;44.33;94565.22;4966121;28;20034;-73
2021/08/31 16:06:51;;;;;;;2.83;2.60;;;;;;;24.76;43.77;94569.16;4966917;28;20039;-71
2021/08/31 16:09:16;;;;;;;2.83;2.60;;;;;;;24.71;43.67;94568.38;4932272;28;20022;-72
2021/08/31 16:11:41;;;;;;;2.90;2.60;;;;;;;24.59;44.65;94563.38;4947954;28;20030;-71
2021/08/31 16:14:07;;;;;;;8.15;2.40;;;;;;;24.47;45.75;94563.63;4946903;28;20393;-71
2021/08/31 16:16:32;;;;;;;4.70;2.97;;;;;;;24.21;45.69;94540.09;4949269;28;20133;-71
2021/08/31 16:18:58;;;;;;;3.22;2.55;;;;;;;24.25;45.84;94571.06;4951944;28;20527;-71
2021/08/31 16:21:23;;;;;;;2.80;2.60;;;;;;;24.22;45.82;94568.16;4933095;28;20042;-71
2021/08/31 16:23:49;;;;;;;2.97;2.72;;;;;;;24.10;46.12;94577.13;4966145;28;20034;-71
2021/08/31 16:26:14;;;;;;;2.60;2.17;;;;;;;23.84;50.63;94580.78;4948766;28;20023;-71
2021/08/31 16:28:40;;;;;;;5.68;2.67;;;;;;;23.54;49.95;94581.50;4949360;28;20027;-71
2021/08/31 16:31:08;;;;;;;4.25;3.10;;;;;;;23.38;50.87;94577.19;4932012;28;20030;-71
2021/08/31 16:33:34;;;;;;;3.55;2.33;;;;;;;23.26;50.29;94579.25;4939004;28;20491;-71
2021/08/31 16:36:06;;;;;;;2.65;2.45;;;;;;;23.18;52.26;94584.25;4915917;28;20042;-71